createdAt,value
2022-10-21T00:01:59.295Z,100965.47
2022-10-21T00:32:29.103Z,100980.63
2022-10-21T00:43:59.363Z,100961.91
2022-10-21T00:46:31.099Z,100960.25
2022-10-21T00:49:02.093Z,100954.63
2022-10-21T00:51:29.388Z,100944.72
2022-10-21T00:53:56.278Z,100948.78
2022-10-21T00:56:28.635Z,100934.34
2022-10-21T00:58:58.297Z,100938.50
2022-10-21T01:01:26.031Z,100939.75
2022-10-21T01:03:56.200Z,100941.78
2022-10-21T01:06:25.728Z,100943.72
2022-10-21T01:08:54.826Z,100940.19
2022-10-21T01:11:23.959Z,100937.75
2022-10-21T01:17:40.230Z,100918.22
2022-10-21T01:20:53.027Z,100919.19
2022-10-21T01:50:24.528Z,100890.78
2022-10-21T02:16:47.366Z,100876.53
2022-10-21T02:22:00.052Z,100852.13
2022-10-21T02:24:52.727Z,100857.94
2022-10-21T02:27:21.435Z,100853.88
2022-10-21T02:35:37.912Z,100839.16
2022-10-21T02:38:24.014Z,100839.28
2022-10-21T02:41:02.674Z,100844.34
2022-10-21T03:21:24.648Z,100842.50
2022-10-21T03:24:15.563Z,100843.31
2022-10-21T03:26:55.313Z,100841.06
2022-10-21T03:29:29.847Z,100849.72
2022-10-21T03:54:37.876Z,100814.41
2022-10-21T03:57:04.820Z,100806.06
2022-10-21T03:59:31.597Z,100807.44
2022-10-21T04:15:29.154Z,100790.78
2022-10-21T04:17:56.352Z,100795.03
2022-10-21T04:20:23.939Z,100798.53
2022-10-21T04:22:50.925Z,100808.72
2022-10-21T04:25:17.840Z,100810.03
2022-10-21T04:30:28.514Z,100800.44
2022-10-21T04:32:55.422Z,100811.41
2022-10-21T04:35:25.387Z,100810.44
2022-10-21T04:37:52.275Z,100819.91
2022-10-21T04:40:19.132Z,100818.06
2022-10-21T04:42:50.470Z,100819.16
2022-10-21T04:45:18.532Z,100817.09
2022-10-21T04:47:45.438Z,100826.03
2022-10-21T04:50:12.492Z,100822.13
2022-10-21T04:52:40.083Z,100820.59
2022-10-21T04:55:07.630Z,100825.31
2022-10-21T04:57:34.636Z,100824.06
2022-10-21T05:00:02.241Z,100824.34
2022-10-21T05:02:29.052Z,100821.53
2022-10-21T05:04:55.918Z,100820.47
2022-10-21T05:07:22.826Z,100816.41
2022-10-21T05:09:49.679Z,100818.22
2022-10-21T05:12:16.521Z,100822.19
2022-10-21T05:14:43.352Z,100822.47
2022-10-21T05:17:11.293Z,100823.81
2022-10-21T05:19:38.840Z,100826.50
2022-10-21T05:22:09.737Z,100825.94
2022-10-21T05:24:41.274Z,100830.19
2022-10-21T05:27:11.345Z,100816.84
2022-10-21T05:29:39.558Z,100822.63
2022-10-21T05:34:43.836Z,100821.88
2022-10-21T05:37:11.134Z,100819.53
2022-10-21T05:39:38.156Z,100809.66
2022-10-21T05:42:05.059Z,100808.88
2022-10-21T05:44:35.087Z,100806.34
2022-10-21T05:47:02.584Z,100814.47
2022-10-21T05:49:29.752Z,100815.59
2022-10-21T05:51:56.907Z,100815.38
2022-10-21T05:54:23.927Z,100821.75
2022-10-21T05:56:50.961Z,100812.38
2022-10-21T05:59:18.098Z,100804.88
2022-10-21T06:01:45.468Z,100803.34
2022-10-21T06:04:15.550Z,100807.00
2022-10-21T06:06:42.489Z,100800.00
2022-10-21T06:09:09.622Z,100807.88
2022-10-21T06:11:36.503Z,100808.09
2022-10-21T06:14:03.656Z,100800.56
2022-10-21T06:16:30.628Z,100797.94
2022-10-21T06:18:57.538Z,100799.00
2022-10-21T06:21:24.514Z,100792.81
2022-10-21T06:23:54.024Z,100790.97
2022-10-21T06:26:21.447Z,100792.81
2022-10-21T06:28:48.460Z,100795.63
2022-10-21T06:31:19.106Z,100793.78
2022-10-21T06:33:46.107Z,100796.91
2022-10-21T06:36:13.120Z,100800.50
2022-10-21T06:38:40.268Z,100797.88
2022-10-21T06:41:13.018Z,100793.16
2022-10-21T06:43:41.391Z,100786.31
2022-10-21T06:46:16.640Z,100795.06
2022-10-21T06:48:43.964Z,100794.28
2022-10-21T06:51:15.339Z,100808.03
2022-10-21T06:53:43.574Z,100816.97
2022-10-21T06:56:19.333Z,100821.59
2022-10-21T06:58:48.293Z,100814.75
2022-10-21T07:01:34.290Z,100812.13
2022-10-21T07:04:04.652Z,100819.13
2022-10-21T07:08:59.290Z,100816.16
2022-10-21T07:11:28.046Z,100812.66
2022-10-21T07:13:55.732Z,100814.72
2022-10-21T07:16:34.618Z,100820.66
2022-10-21T07:19:01.578Z,100812.81
2022-10-21T07:21:30.839Z,100820.00
2022-10-21T07:23:59.663Z,100828.31
2022-10-21T07:26:29.401Z,100827.72
2022-10-21T07:28:58.581Z,100836.47
2022-10-21T07:31:26.068Z,100833.56
2022-10-21T07:33:53.945Z,100836.38
2022-10-21T07:36:26.592Z,100835.22
2022-10-21T07:38:55.453Z,100830.97
2022-10-21T07:41:25.803Z,100825.94
2022-10-21T07:43:53.992Z,100828.75
2022-10-21T07:46:21.926Z,100841.16
2022-10-21T07:48:49.857Z,100855.13
2022-10-21T07:51:20.637Z,100859.22
2022-10-21T07:53:51.088Z,100870.03
2022-10-21T07:56:21.295Z,100875.69
2022-10-21T07:58:48.605Z,100876.06
2022-10-21T08:01:17.193Z,100874.31
2022-10-21T08:03:44.378Z,100881.47
2022-10-21T08:06:12.984Z,100877.16
2022-10-21T08:08:40.673Z,100878.59
2022-10-21T08:11:08.882Z,100870.03
2022-10-21T08:13:36.659Z,100873.63
2022-10-21T08:16:05.448Z,100864.59
2022-10-21T08:18:33.391Z,100870.78
2022-10-21T08:21:04.393Z,100873.75
2022-10-21T08:23:31.531Z,100871.03
2022-10-21T08:26:01.045Z,100867.84
2022-10-21T08:28:30.295Z,100864.63
2022-10-21T08:31:08.199Z,100867.41
2022-10-21T08:33:35.550Z,100860.63
2022-10-21T08:36:15.224Z,100863.91
2022-10-21T08:38:42.472Z,100855.94
2022-10-21T08:41:30.522Z,100844.84
2022-10-21T08:44:41.788Z,100830.84
2022-10-21T08:47:21.212Z,100839.97
2022-10-21T08:50:14.298Z,100839.97
2022-10-21T08:52:49.217Z,100845.38
2022-10-21T08:55:31.023Z,100841.38
2022-10-21T08:57:58.095Z,100838.78
2022-10-21T09:00:31.416Z,100843.41
2022-10-21T09:03:01.500Z,100849.59
2022-10-21T09:06:12.341Z,100846.84
2022-10-21T09:09:06.954Z,100850.44
2022-10-21T09:12:08.813Z,100858.94
2022-10-21T09:15:10.336Z,100872.25
2022-10-21T09:18:03.138Z,100877.06
2022-10-21T09:20:38.999Z,100871.84
2022-10-21T09:23:26.042Z,100864.91
2022-10-21T09:26:08.217Z,100861.56
2022-10-21T09:28:36.640Z,100871.66
2022-10-21T09:31:21.545Z,100871.69
2022-10-21T09:33:59.617Z,100876.03
2022-10-21T09:36:37.996Z,100874.66
2022-10-21T09:39:14.730Z,100874.81
2022-10-21T09:41:45.434Z,100874.97
2022-10-21T09:44:19.955Z,100892.91
2022-10-21T09:46:49.262Z,100889.81
2022-10-21T09:52:37.941Z,100883.53
2022-10-21T09:55:14.154Z,100882.78
2022-10-21T09:57:54.564Z,100885.72
2022-10-21T10:00:21.863Z,100874.94
2022-10-21T10:02:49.568Z,100876.63
2022-10-21T10:05:38.641Z,100887.47
2022-10-21T10:08:41.385Z,100887.47
2022-10-21T10:11:11.617Z,100885.44
2022-10-21T10:13:42.487Z,100888.25
2022-10-21T10:16:24.380Z,100883.31
2022-10-21T10:19:10.123Z,100882.69
2022-10-21T10:21:37.629Z,100883.63
2022-10-21T10:24:05.611Z,100887.16
2022-10-21T10:26:35.355Z,100885.47
2022-10-21T10:29:23.242Z,100876.22
2022-10-21T10:31:55.073Z,100881.59
2022-10-21T10:34:27.203Z,100877.59
2022-10-21T10:37:03.281Z,100882.88
2022-10-21T10:39:34.211Z,100878.84
2022-10-21T10:42:03.064Z,100879.00
2022-10-21T10:44:41.364Z,100873.25
2022-10-21T10:47:18.500Z,100877.91
2022-10-21T10:49:45.756Z,100880.41
2022-10-21T10:52:12.861Z,100883.66
2022-10-21T10:54:41.476Z,100886.75
2022-10-21T10:57:19.169Z,100886.25
2022-10-21T10:59:52.562Z,100881.91
2022-10-21T11:02:27.874Z,100881.13
2022-10-21T11:05:06.801Z,100878.19
2022-10-21T11:07:45.111Z,100882.81
2022-10-21T11:10:27.727Z,100884.63
2022-10-21T11:12:54.867Z,100888.84
2022-10-21T11:15:28.563Z,100889.28
2022-10-21T11:18:24.104Z,100890.81
2022-10-21T11:20:56.818Z,100886.78
2022-10-21T11:23:38.401Z,100891.72
2022-10-21T11:26:23.045Z,100898.22
2022-10-21T11:29:16.514Z,100898.38
2022-10-21T11:32:11.076Z,100893.09
2022-10-21T11:35:20.661Z,100892.25
2022-10-21T11:38:16.655Z,100891.19
2022-10-21T11:40:50.547Z,100891.88
2022-10-21T11:43:45.590Z,100890.84
2022-10-21T11:46:29.804Z,100874.72
2022-10-21T11:49:11.827Z,100876.25
2022-10-21T11:52:05.989Z,100880.50
2022-10-21T11:55:08.277Z,100878.41
2022-10-21T11:57:56.557Z,100872.00
2022-10-21T12:00:25.640Z,100870.94
2022-10-21T12:03:11.211Z,100874.75
2022-10-21T12:05:48.856Z,100873.25
2022-10-21T12:11:12.504Z,100858.31
2022-10-21T12:13:42.363Z,100858.22
2022-10-21T12:16:13.427Z,100848.41
2022-10-21T12:18:48.818Z,100852.94
2022-10-21T12:21:18.445Z,100866.03
2022-10-21T12:23:52.149Z,100865.00
2022-10-21T12:26:28.888Z,100858.28
2022-10-21T12:29:12.755Z,100862.31
2022-10-21T12:31:56.290Z,100869.13
2022-10-21T12:34:24.489Z,100868.84
2022-10-21T12:36:54.429Z,100865.88
2022-10-21T12:39:33.478Z,100879.06
2022-10-21T12:42:19.592Z,100864.91
2022-10-21T12:44:49.544Z,100863.38
2022-10-21T12:47:32.070Z,100870.97
2022-10-21T12:50:14.511Z,100858.22
2022-10-21T12:52:46.379Z,100865.13
2022-10-21T12:55:25.913Z,100868.22
2022-10-21T12:58:00.261Z,100865.25
2022-10-21T13:00:30.117Z,100873.28
2022-10-21T13:03:05.276Z,100872.19
2022-10-21T13:05:38.485Z,100870.63
2022-10-21T13:08:23.097Z,100868.69
2022-10-21T13:11:05.254Z,100867.69
2022-10-21T13:13:45.716Z,100864.06
2022-10-21T13:16:18.854Z,100857.03
2022-10-21T13:18:59.414Z,100866.03
2022-10-21T13:21:48.743Z,100858.78
2022-10-21T13:24:25.674Z,100852.72
2022-10-21T13:27:01.710Z,100850.88
2022-10-21T13:29:37.159Z,100854.84
2022-10-21T13:32:14.003Z,100858.91
2022-10-21T13:35:03.236Z,100859.88
2022-10-21T13:37:35.217Z,100860.00
2022-10-21T13:40:16.030Z,100867.47
2022-10-21T13:42:54.020Z,100869.47
2022-10-21T13:45:42.809Z,100867.69
2022-10-21T13:48:15.964Z,100871.31
2022-10-21T13:50:45.981Z,100871.50
2022-10-21T13:53:19.077Z,100876.28
2022-10-21T13:55:56.467Z,100870.75
2022-10-21T13:58:24.829Z,100874.94
2022-10-21T14:00:57.816Z,100873.25
2022-10-21T14:03:26.719Z,100869.19
2022-10-21T14:05:59.139Z,100872.06
2022-10-21T14:08:33.277Z,100880.50
2022-10-21T14:11:05.326Z,100883.47
2022-10-21T14:13:36.189Z,100881.94
2022-10-21T14:16:04.987Z,100874.56
2022-10-21T14:18:37.421Z,100872.38
2022-10-21T14:21:06.490Z,100880.84
2022-10-21T14:23:34.897Z,100879.75
2022-10-21T14:26:06.398Z,100884.72
2022-10-21T14:28:34.663Z,100890.88
2022-10-21T14:31:02.923Z,100887.53
2022-10-21T14:33:30.257Z,100887.34
2022-10-21T14:36:23.517Z,100882.94
2022-10-21T14:38:50.390Z,100876.88
2022-10-21T14:41:22.997Z,100881.84
2022-10-21T14:43:52.752Z,100882.84
2022-10-21T14:46:20.887Z,100881.78
2022-10-21T14:48:53.633Z,100878.59
2022-10-21T14:51:22.851Z,100883.00
2022-10-21T14:53:59.356Z,100884.19
2022-10-21T14:56:35.638Z,100882.78
2022-10-21T14:59:24.493Z,100888.28
2022-10-21T15:01:52.318Z,100885.84
2022-10-21T15:04:58.394Z,100883.66
2022-10-21T15:07:38.171Z,100887.97
2022-10-21T15:10:05.124Z,100886.97
2022-10-21T15:12:53.024Z,100889.81
2022-10-21T15:15:49.743Z,100878.91
2022-10-21T15:18:24.034Z,100882.75
2022-10-21T15:21:04.380Z,100871.63
2022-10-21T15:23:35.304Z,100883.16
2022-10-21T15:26:10.559Z,100885.56
2022-10-21T15:28:38.005Z,100884.97
2022-10-21T15:31:08.660Z,100874.94
2022-10-21T15:33:35.532Z,100878.88
2022-10-21T15:36:10.314Z,100881.41
2022-10-21T15:38:44.671Z,100891.06
2022-10-21T15:41:15.608Z,100887.84
2022-10-21T15:43:44.491Z,100902.00
2022-10-21T15:46:12.227Z,100892.00
2022-10-21T15:48:39.105Z,100900.09
2022-10-21T15:51:06.205Z,100894.56
2022-10-21T15:53:33.156Z,100882.03
2022-10-21T15:56:01.049Z,100876.97
2022-10-21T15:58:27.937Z,100882.09
2022-10-21T16:00:55.125Z,100875.47
2022-10-21T16:03:23.059Z,100883.91
2022-10-21T16:05:50.985Z,100886.41
2022-10-21T16:08:17.943Z,100891.09
2022-10-21T16:10:47.987Z,100891.25
2022-10-21T16:13:15.524Z,100893.34
2022-10-21T16:15:42.573Z,100893.81
2022-10-21T16:18:14.388Z,100901.44
2022-10-21T16:20:43.028Z,100897.44
2022-10-21T16:23:10.791Z,100898.72
2022-10-21T16:25:37.636Z,100906.00
2022-10-21T16:28:05.107Z,100896.75
2022-10-21T16:30:37.235Z,100901.72
2022-10-21T16:33:04.267Z,100901.44
2022-10-21T16:35:31.690Z,100900.84
2022-10-21T16:37:58.793Z,100910.00
2022-10-21T16:40:35.511Z,100905.53
2022-10-21T16:43:02.298Z,100909.44
2022-10-21T16:45:31.177Z,100912.22
2022-10-21T16:48:00.625Z,100917.66
2022-10-21T16:50:44.029Z,100918.56
2022-10-21T16:53:16.765Z,100913.03
2022-10-21T16:55:43.842Z,100924.00
2022-10-21T16:58:10.856Z,100923.41
2022-10-21T17:00:37.767Z,100921.53
2022-10-21T17:03:04.998Z,100925.09
2022-10-21T17:05:31.966Z,100922.16
2022-10-21T17:08:00.189Z,100932.19
2022-10-21T17:10:27.198Z,100925.06
2022-10-21T17:12:59.040Z,100930.78
2022-10-21T17:15:27.816Z,100934.03
2022-10-21T17:17:54.920Z,100933.41
2022-10-21T17:20:21.918Z,100947.16
2022-10-21T17:22:48.777Z,100937.88
2022-10-21T17:25:15.835Z,100942.97
2022-10-21T17:27:42.993Z,100945.91
2022-10-21T17:30:10.676Z,100945.28
2022-10-21T17:32:37.640Z,100949.91
2022-10-21T17:35:04.755Z,100946.63
2022-10-21T17:37:31.644Z,100950.94
2022-10-21T17:39:58.657Z,100950.78
2022-10-21T17:42:25.592Z,100949.53
2022-10-21T17:44:52.943Z,100951.06
2022-10-21T17:47:19.842Z,100954.31
2022-10-21T17:49:46.744Z,100958.00
2022-10-21T17:52:16.410Z,100955.97
2022-10-21T17:54:43.384Z,100961.25
2022-10-21T17:57:11.464Z,100972.22
2022-10-21T17:59:38.415Z,100965.41
2022-10-21T18:02:05.335Z,100958.13
2022-10-21T18:04:33.624Z,100970.78
2022-10-21T18:07:00.505Z,100969.84
2022-10-21T18:09:27.562Z,100968.59
2022-10-21T18:11:54.596Z,100964.25
2022-10-21T18:14:21.538Z,100961.16
2022-10-21T18:16:48.498Z,100965.63
2022-10-21T18:19:16.875Z,100961.78
2022-10-21T18:21:43.874Z,100971.19
2022-10-21T18:24:12.584Z,100962.34
2022-10-21T18:26:40.232Z,100972.38
2022-10-21T18:29:07.170Z,100974.81
2022-10-21T18:31:37.470Z,100964.16
2022-10-21T18:34:05.971Z,100964.28
2022-10-21T18:36:34.417Z,100963.81
2022-10-21T18:39:01.585Z,100966.53
2022-10-21T18:41:28.814Z,100975.00
2022-10-21T18:44:02.124Z,100971.44
2022-10-21T18:46:30.110Z,100966.28
2022-10-21T18:48:57.688Z,100967.69
2022-10-21T18:51:24.801Z,100966.25
2022-10-21T18:53:52.953Z,100969.16
2022-10-21T18:56:22.218Z,100969.16
2022-10-21T18:58:50.061Z,100972.88
2022-10-21T19:01:18.285Z,100979.19
2022-10-21T19:03:45.680Z,100975.03
2022-10-21T19:06:32.193Z,100978.22
2022-10-21T19:09:03.963Z,100979.31
2022-10-21T19:11:31.346Z,100981.47
2022-10-21T19:13:58.405Z,100981.47
2022-10-21T19:16:25.309Z,100986.69
2022-10-21T19:18:53.583Z,100976.78
2022-10-21T19:21:21.625Z,100985.91
2022-10-21T19:23:48.581Z,100985.91
2022-10-21T19:26:17.858Z,100980.66
2022-10-21T19:28:47.712Z,100988.03
2022-10-21T19:31:15.967Z,100990.19
2022-10-21T19:33:44.152Z,100987.88
2022-10-21T19:36:11.926Z,100987.56
2022-10-21T19:38:44.042Z,100997.00
2022-10-21T19:41:15.700Z,100990.00
2022-10-21T19:43:42.877Z,100987.88
2022-10-21T19:46:14.630Z,101003.63
2022-10-21T19:48:41.572Z,100988.47
2022-10-21T19:51:15.129Z,100992.94
2022-10-21T19:53:44.073Z,101002.63
2022-10-21T19:56:11.809Z,100995.66
2022-10-21T19:58:43.762Z,101001.19
2022-10-21T20:01:12.541Z,101002.28
2022-10-21T20:03:41.118Z,101000.72
2022-10-21T20:06:09.719Z,101006.75
2022-10-21T20:08:37.421Z,101008.09
2022-10-21T20:11:26.195Z,101015.97
2022-10-21T20:13:53.457Z,101006.09
2022-10-21T20:16:28.949Z,101005.59
2022-10-21T20:18:56.843Z,101004.84
2022-10-21T20:21:25.245Z,101006.19
2022-10-21T20:23:52.534Z,101009.13
2022-10-21T20:26:20.487Z,101002.31
2022-10-21T20:28:47.420Z,101002.13
2022-10-21T20:31:16.380Z,101013.38
2022-10-21T20:33:47.241Z,101008.44
2022-10-21T20:36:21.591Z,101013.69
2022-10-21T20:38:50.494Z,101015.03
2022-10-21T20:41:23.388Z,101011.16
2022-10-21T20:43:51.379Z,101017.50
2022-10-21T20:46:20.483Z,101021.16
2022-10-21T20:48:49.524Z,101020.97
2022-10-21T20:51:19.793Z,101025.44
2022-10-21T20:53:48.977Z,101026.81
2022-10-21T20:56:16.463Z,101028.66
2022-10-21T20:58:44.083Z,101035.72
2022-10-21T21:01:23.267Z,101026.59
2022-10-21T21:03:51.001Z,101027.97
2022-10-21T21:06:18.795Z,101021.16
2022-10-21T21:08:49.337Z,101030.41
2022-10-21T21:11:21.335Z,101029.16
2022-10-21T21:13:48.409Z,101033.41
2022-10-21T21:16:18.165Z,101034.00
2022-10-21T21:18:51.135Z,101040.59
2022-10-21T21:21:19.606Z,101044.28
2022-10-21T21:23:46.932Z,101036.72
2022-10-21T21:26:19.875Z,101041.16
2022-10-21T21:28:47.184Z,101041.75
2022-10-21T21:31:17.976Z,101038.94
2022-10-21T21:33:47.968Z,101046.03
2022-10-21T21:36:16.519Z,101046.03
2022-10-21T21:38:43.891Z,101045.25
2022-10-21T21:41:11.545Z,101049.69
2022-10-21T21:43:38.722Z,101054.16
2022-10-21T21:46:05.875Z,101052.63
2022-10-21T21:48:33.569Z,101055.53
2022-10-21T21:51:02.119Z,101055.03
2022-10-21T21:53:29.344Z,101052.91
2022-10-21T21:55:59.764Z,101048.53
2022-10-21T21:58:29.821Z,101054.25
2022-10-21T22:00:56.722Z,101054.56
2022-10-21T22:03:23.989Z,101053.75
2022-10-21T22:05:50.728Z,101048.03
2022-10-21T22:08:17.431Z,101047.75
2022-10-21T22:10:44.178Z,101061.94
2022-10-21T22:13:12.865Z,101059.00
2022-10-21T22:15:48.446Z,101053.75
2022-10-21T22:18:15.640Z,101051.44
2022-10-21T22:20:42.565Z,101055.13
2022-10-21T22:23:09.579Z,101054.84
2022-10-21T22:25:36.434Z,101053.00
2022-10-21T22:28:03.541Z,101058.22
2022-10-21T22:30:30.375Z,101054.06
2022-10-21T22:32:57.203Z,101053.00
2022-10-21T22:35:24.164Z,101047.25
2022-10-21T22:37:50.970Z,101056.69
2022-10-21T22:40:17.873Z,101056.69
2022-10-21T22:45:11.617Z,101052.72
2022-10-21T22:47:38.721Z,101050.38
2022-10-21T22:50:06.162Z,101049.31
2022-10-21T22:52:33.062Z,101050.84
2022-10-21T22:54:59.842Z,101045.13
2022-10-21T22:57:26.687Z,101052.22
2022-10-21T22:59:53.719Z,101039.13
2022-10-21T23:02:20.702Z,101045.41
2022-10-21T23:04:47.463Z,101049.88
2022-10-21T23:07:14.281Z,101050.66
2022-10-21T23:09:41.054Z,101049.88
2022-10-21T23:12:07.969Z,101049.88
2022-10-21T23:14:35.231Z,101049.88
2022-10-21T23:17:02.108Z,101047.53
2022-10-21T23:19:29.026Z,101047.38
2022-10-21T23:21:55.847Z,101044.25
2022-10-21T23:24:22.716Z,101040.84
2022-10-21T23:26:49.580Z,101035.44
2022-10-21T23:29:16.434Z,101044.06
2022-10-21T23:31:43.305Z,101040.16
2022-10-21T23:34:10.210Z,101046.72
2022-10-21T23:36:37.343Z,101041.28
2022-10-21T23:39:05.068Z,101040.78
2022-10-21T23:41:32.012Z,101044.00
2022-10-21T23:43:58.777Z,101044.78
2022-10-21T23:48:57.434Z,101035.66
2022-10-21T23:51:24.377Z,101039.81
2022-10-21T23:53:51.368Z,101038.75
2022-10-21T23:56:18.371Z,101035.38
2022-10-21T23:58:45.214Z,101037.19
